createdAt,value
2022-08-22T00:01:30.685Z,100222.22
2022-08-22T00:02:42.144Z,100106.56
2022-08-22T00:02:54.996Z,100219.31
2022-08-22T00:03:09.335Z,100228.00
2022-08-22T00:03:11.074Z,100133.78
2022-08-22T00:04:36.340Z,100224.91
2022-08-22T00:07:12.000Z,100212.28
2022-08-22T00:10:11.802Z,100216.63
2022-08-22T00:13:24.231Z,100211.75
2022-08-22T00:16:16.414Z,100218.53
2022-08-22T00:19:12.246Z,100204.94
2022-08-22T00:22:00.555Z,100211.88
2022-08-22T00:24:41.739Z,100204.88
2022-08-22T00:27:24.210Z,100217.50
2022-08-22T00:30:11.985Z,100206.47
2022-08-22T00:32:48.511Z,100214.47
2022-08-22T00:35:42.924Z,100208.25
2022-08-22T00:38:18.523Z,100208.34
2022-08-22T00:41:10.615Z,100212.84
2022-08-22T00:43:53.559Z,100209.59
2022-08-22T00:46:45.966Z,100203.97
2022-08-22T00:49:43.867Z,100206.34
2022-08-22T00:52:20.521Z,100207.59
2022-08-22T00:55:18.800Z,100199.59
2022-08-22T00:58:05.864Z,100200.22
2022-08-22T01:00:42.906Z,100195.75
2022-08-22T01:03:16.680Z,100201.59
2022-08-22T01:06:21.111Z,100192.66
2022-08-22T01:09:08.016Z,100192.72
2022-08-22T01:11:58.744Z,100189.47
2022-08-22T01:14:54.813Z,100181.47
2022-08-22T01:17:47.233Z,100173.50
2022-08-22T01:20:33.195Z,100184.16
2022-08-22T01:23:12.675Z,100181.50
2022-08-22T01:25:55.279Z,100167.44
2022-08-22T01:28:44.519Z,100175.88
2022-08-22T01:31:52.221Z,100172.84
2022-08-22T01:34:40.330Z,100172.03
2022-08-22T01:37:52.789Z,100163.59
2022-08-22T01:40:53.975Z,100164.63
2022-08-22T01:43:59.082Z,100168.19
2022-08-22T01:46:34.250Z,100173.94
2022-08-22T01:49:07.996Z,100164.69
2022-08-22T01:52:06.798Z,100168.09
2022-08-22T01:54:43.222Z,100158.78
2022-08-22T01:57:12.525Z,100156.47
2022-08-22T01:59:43.213Z,100156.19
2022-08-22T02:02:36.458Z,100154.69
2022-08-22T02:05:28.730Z,100148.94
2022-08-22T02:08:22.075Z,100143.47
2022-08-22T02:11:00.038Z,100147.25
2022-08-22T02:13:36.184Z,100155.53
2022-08-22T02:16:10.378Z,100158.47
2022-08-22T02:18:54.374Z,100156.69
2022-08-22T02:21:33.862Z,100152.50
2022-08-22T02:24:14.554Z,100161.00
2022-08-22T02:27:04.132Z,100145.72
2022-08-22T02:30:04.064Z,100139.66
2022-08-22T02:32:41.532Z,100135.13
2022-08-22T02:35:36.869Z,100155.72
2022-08-22T02:38:39.630Z,100150.19
2022-08-22T02:41:26.472Z,100141.88
2022-08-22T02:44:03.691Z,100146.84
2022-08-22T02:46:43.407Z,100138.47
2022-08-22T02:49:11.869Z,100148.22
2022-08-22T02:52:00.086Z,100133.47
2022-08-22T02:54:38.492Z,100137.47
2022-08-22T02:57:26.486Z,100131.16
2022-08-22T03:00:41.012Z,100137.53
2022-08-22T03:03:25.229Z,100137.09
2022-08-22T03:06:01.065Z,100134.16
2022-08-22T03:08:32.331Z,100139.53
2022-08-22T03:11:11.833Z,100136.91
2022-08-22T03:14:13.100Z,100134.16
2022-08-22T03:16:47.978Z,100123.59
2022-08-22T03:19:38.683Z,100130.97
2022-08-22T03:22:13.901Z,100128.78
2022-08-22T03:24:55.500Z,100140.53
2022-08-22T03:27:32.598Z,100141.75
2022-08-22T03:30:22.907Z,100145.47
2022-08-22T03:32:55.665Z,100146.84
2022-08-22T03:35:41.398Z,100143.22
2022-08-22T03:38:31.967Z,100142.03
2022-08-22T03:41:27.378Z,100140.53
2022-08-22T03:44:11.992Z,100140.28
2022-08-22T03:46:52.786Z,100127.84
2022-08-22T03:49:44.875Z,100137.13
2022-08-22T03:52:31.007Z,100146.75
2022-08-22T03:55:20.842Z,100149.75
2022-08-22T03:57:51.010Z,100144.78
2022-08-22T04:00:31.975Z,100145.34
2022-08-22T04:03:45.898Z,100141.66
2022-08-22T04:06:35.409Z,100141.22
2022-08-22T04:09:24.659Z,100149.56
2022-08-22T04:12:20.108Z,100145.25
2022-08-22T04:15:07.784Z,100144.63
2022-08-22T04:17:58.470Z,100146.00
2022-08-22T04:20:40.901Z,100149.09
2022-08-22T04:23:37.055Z,100155.47
2022-08-22T04:26:16.331Z,100154.66
2022-08-22T04:29:02.088Z,100150.63
2022-08-22T04:31:42.455Z,100159.66
2022-08-22T04:34:28.702Z,100152.41
2022-08-22T04:37:21.129Z,100147.25
2022-08-22T04:39:55.748Z,100147.97
2022-08-22T04:42:33.516Z,100153.25
2022-08-22T04:45:10.447Z,100149.63
2022-08-22T04:47:43.997Z,100154.66
2022-08-22T04:50:26.546Z,100158.84
2022-08-22T04:53:18.737Z,100148.53
2022-08-22T04:55:54.766Z,100151.31
2022-08-22T04:58:51.988Z,100157.00
2022-08-22T05:01:20.827Z,100161.72
2022-08-22T05:03:57.893Z,100169.66
2022-08-22T05:06:30.216Z,100167.72
2022-08-22T05:09:05.964Z,100161.72
2022-08-22T05:11:37.076Z,100168.81
2022-08-22T05:14:12.233Z,100169.94
2022-08-22T05:16:42.826Z,100171.59
2022-08-22T05:19:22.989Z,100174.09
2022-08-22T05:21:56.110Z,100178.81
2022-08-22T05:24:37.528Z,100183.25
2022-08-22T05:27:11.817Z,100176.31
2022-08-22T05:29:43.755Z,100181.16
2022-08-22T05:32:23.937Z,100180.19
2022-08-22T05:34:55.102Z,100176.78
2022-08-22T05:37:41.610Z,100180.97
2022-08-22T05:40:19.345Z,100185.00
2022-08-22T05:42:47.155Z,100182.09
2022-08-22T05:45:17.577Z,100177.94
2022-08-22T05:47:57.656Z,100167.59
2022-08-22T05:50:39.463Z,100173.59
2022-08-22T05:53:15.740Z,100169.16
2022-08-22T05:55:59.890Z,100178.47
2022-08-22T05:58:27.237Z,100177.06
2022-08-22T06:01:07.093Z,100167.63
2022-08-22T06:04:02.721Z,100172.56
2022-08-22T06:06:37.147Z,100180.31
2022-08-22T06:09:36.415Z,100189.03
2022-08-22T06:12:18.312Z,100181.63
2022-08-22T06:15:12.694Z,100190.19
2022-08-22T06:17:50.241Z,100193.75
2022-08-22T06:20:27.048Z,100187.50
2022-08-22T06:23:00.839Z,100187.94
2022-08-22T06:25:33.341Z,100184.75
2022-08-22T06:28:06.604Z,100200.19
2022-08-22T06:30:39.747Z,100190.97
2022-08-22T06:33:12.645Z,100202.22
2022-08-22T06:36:05.924Z,100197.75
2022-08-22T06:39:00.648Z,100200.78
2022-08-22T06:41:30.683Z,100189.00
2022-08-22T06:44:00.198Z,100189.50
2022-08-22T06:46:29.876Z,100196.44
2022-08-22T06:49:00.210Z,100199.69
2022-08-22T06:51:29.253Z,100204.59
2022-08-22T06:54:01.606Z,100201.38
2022-08-22T06:56:44.483Z,100200.50
2022-08-22T06:59:15.923Z,100191.34
2022-08-22T07:01:54.926Z,100193.34
2022-08-22T07:04:27.792Z,100178.09
2022-08-22T07:06:58.914Z,100201.56
2022-08-22T07:09:34.796Z,100198.03
2022-08-22T07:12:11.002Z,100199.00
2022-08-22T07:14:45.766Z,100198.84
2022-08-22T07:17:23.468Z,100194.97
2022-08-22T07:20:06.080Z,100198.97
2022-08-22T07:22:37.518Z,100192.84
2022-08-22T07:25:13.080Z,100193.13
2022-08-22T07:27:40.471Z,100195.41
2022-08-22T07:30:12.942Z,100187.16
2022-08-22T07:32:57.737Z,100194.03
2022-08-22T07:35:53.766Z,100189.69
2022-08-22T07:38:43.830Z,100181.72
2022-08-22T07:41:16.667Z,100184.38
2022-08-22T07:43:57.636Z,100185.25
2022-08-22T07:46:34.046Z,100184.06
2022-08-22T07:49:10.704Z,100189.25
2022-08-22T07:51:49.651Z,100179.72
2022-08-22T07:54:27.768Z,100184.59
2022-08-22T07:57:21.290Z,100180.06
2022-08-22T07:59:53.973Z,100180.88
2022-08-22T08:02:23.372Z,100189.00
2022-08-22T08:04:55.197Z,100184.44
2022-08-22T08:07:29.011Z,100190.44
2022-08-22T08:10:13.075Z,100188.88
2022-08-22T08:12:58.029Z,100187.88
2022-08-22T08:15:37.437Z,100187.97
2022-08-22T08:18:14.253Z,100192.59
2022-08-22T08:20:42.228Z,100193.66
2022-08-22T08:23:12.724Z,100186.69
2022-08-22T08:25:59.393Z,100184.47
2022-08-22T08:28:37.581Z,100171.50
2022-08-22T08:31:12.655Z,100175.81
2022-08-22T08:33:44.153Z,100176.50
2022-08-22T08:36:34.251Z,100186.81
2022-08-22T08:39:39.499Z,100183.50
2022-08-22T08:42:28.341Z,100190.22
2022-08-22T08:45:18.786Z,100186.22
2022-08-22T08:48:16.795Z,100186.66
2022-08-22T08:50:51.631Z,100176.75
2022-08-22T08:53:53.005Z,100182.34
2022-08-22T08:56:54.303Z,100179.06
2022-08-22T08:59:45.169Z,100183.16
2022-08-22T09:02:23.759Z,100181.31
2022-08-22T09:05:09.207Z,100178.03
2022-08-22T09:07:49.139Z,100170.19
2022-08-22T09:10:59.975Z,100166.19
2022-08-22T09:13:46.150Z,100163.31
2022-08-22T09:16:24.673Z,100161.81
2022-08-22T09:19:40.593Z,100169.00
2022-08-22T09:22:14.723Z,100155.81
2022-08-22T09:25:14.811Z,100155.53
2022-08-22T09:28:13.635Z,100151.00
2022-08-22T09:31:02.465Z,100140.25
2022-08-22T09:33:54.647Z,100142.69
2022-08-22T09:36:31.246Z,100140.97
2022-08-22T09:39:18.899Z,100145.28
2022-08-22T09:42:03.580Z,100150.16
2022-08-22T09:44:56.223Z,100141.09
2022-08-22T09:47:51.872Z,100135.72
2022-08-22T09:50:35.641Z,100135.72
2022-08-22T09:53:13.891Z,100144.41
2022-08-22T09:56:15.873Z,100125.78
2022-08-22T09:59:16.260Z,100130.69
2022-08-22T10:02:06.139Z,100128.69
2022-08-22T10:04:56.610Z,100138.13
2022-08-22T10:07:52.707Z,100136.47
2022-08-22T10:10:39.955Z,100124.47
2022-08-22T10:13:17.127Z,100121.53
2022-08-22T10:15:57.894Z,100122.41
2022-08-22T10:18:52.755Z,100119.28
2022-08-22T10:22:03.562Z,100123.63
2022-08-22T10:24:43.786Z,100109.47
2022-08-22T10:27:38.067Z,100101.88
2022-08-22T10:30:13.210Z,100102.72
2022-08-22T10:32:52.762Z,100103.47
2022-08-22T10:35:21.415Z,100121.06
2022-08-22T10:37:59.564Z,100110.75
2022-08-22T10:40:39.240Z,100093.53
2022-08-22T10:43:31.225Z,100100.13
2022-08-22T10:46:20.046Z,100106.84
2022-08-22T10:48:56.312Z,100107.28
2022-08-22T10:51:46.615Z,100103.84
2022-08-22T10:55:01.527Z,100093.78
2022-08-22T10:58:04.607Z,100090.97
2022-08-22T11:00:54.371Z,100079.53
2022-08-22T11:04:00.513Z,100082.03
2022-08-22T11:06:37.435Z,100085.78
2022-08-22T11:09:13.215Z,100081.25
2022-08-22T11:12:03.028Z,100077.69
2022-08-22T11:14:40.397Z,100071.13
2022-08-22T11:17:27.575Z,100071.25
2022-08-22T11:20:21.428Z,100080.41
2022-08-22T11:23:26.026Z,100071.53
2022-08-22T11:26:13.463Z,100067.84
2022-08-22T11:28:57.682Z,100070.44
2022-08-22T11:31:51.504Z,100066.16
2022-08-22T11:34:33.586Z,100069.44
2022-08-22T11:37:11.786Z,100071.88
2022-08-22T11:39:45.293Z,100060.09
2022-08-22T11:42:33.339Z,100073.59
2022-08-22T11:45:08.707Z,100066.53
2022-08-22T11:47:49.976Z,100068.13
2022-08-22T11:50:28.244Z,100058.28
2022-08-22T11:53:11.859Z,100065.41
2022-08-22T11:56:05.491Z,100056.63
2022-08-22T11:58:44.296Z,100056.00
2022-08-22T12:01:18.549Z,100049.88
2022-08-22T12:03:58.444Z,100051.13
2022-08-22T12:06:34.727Z,100044.00
2022-08-22T12:09:24.370Z,100028.53
2022-08-22T12:12:43.347Z,100028.91
2022-08-22T12:15:21.286Z,100030.78
2022-08-22T12:18:07.556Z,100028.84
2022-08-22T12:21:01.018Z,100034.53
2022-08-22T12:23:49.611Z,100030.94
2022-08-22T12:26:45.973Z,100032.75
2022-08-22T12:30:03.781Z,100028.75
2022-08-22T12:32:52.193Z,100021.72
2022-08-22T12:35:38.939Z,100015.34
2022-08-22T12:38:34.826Z,100011.66
2022-08-22T12:41:35.232Z,100017.41
2022-08-22T12:44:23.044Z,100024.97
2022-08-22T12:47:26.482Z,100019.88
2022-08-22T12:50:04.150Z,100010.25
2022-08-22T12:53:01.129Z,100010.63
2022-08-22T12:55:47.668Z,100017.13
2022-08-22T12:58:43.879Z,100015.13
2022-08-22T13:01:12.339Z,100014.44
2022-08-22T13:03:59.733Z,100009.22
2022-08-22T13:06:36.351Z,100011.53
2022-08-22T13:09:09.892Z,99996.94
2022-08-22T13:11:43.779Z,99992.94
2022-08-22T13:14:24.048Z,99997.03
2022-08-22T13:17:10.260Z,99993.94
2022-08-22T13:19:59.831Z,99995.53
2022-08-22T13:22:32.014Z,99997.34
2022-08-22T13:25:08.594Z,99987.00
2022-08-22T13:27:51.162Z,99985.44
2022-08-22T13:30:28.883Z,99976.50
2022-08-22T13:33:04.064Z,99964.38
2022-08-22T13:35:42.214Z,99979.25
2022-08-22T13:38:25.593Z,99980.69
2022-08-22T13:40:58.467Z,99974.72
2022-08-22T13:43:30.233Z,99979.06
2022-08-22T13:46:14.291Z,99968.88
2022-08-22T13:48:51.890Z,99963.34
2022-08-22T13:51:40.239Z,99962.63
2022-08-22T13:54:11.027Z,99956.00
2022-08-22T13:56:52.845Z,99953.88
2022-08-22T13:59:53.728Z,99960.47
2022-08-22T14:03:00.401Z,99957.66
2022-08-22T14:05:34.446Z,99955.53
2022-08-22T14:08:15.042Z,99954.97
2022-08-22T14:10:55.197Z,99946.25
2022-08-22T14:13:45.251Z,99959.25
2022-08-22T14:16:25.215Z,99954.06
2022-08-22T14:19:06.137Z,99937.13
2022-08-22T14:21:48.272Z,99941.66
2022-08-22T14:24:25.638Z,99944.53
2022-08-22T14:27:14.908Z,99948.94
2022-08-22T14:29:52.246Z,99938.69
2022-08-22T14:32:25.865Z,99946.91
2022-08-22T14:35:04.866Z,99943.06
2022-08-22T14:37:39.045Z,99942.41
2022-08-22T14:40:14.563Z,99936.88
2022-08-22T14:42:48.647Z,99943.13
2022-08-22T14:45:23.111Z,99937.91
2022-08-22T14:48:29.464Z,99942.38
2022-08-22T14:51:01.600Z,99941.34
2022-08-22T14:53:35.443Z,99936.25
2022-08-22T14:56:11.300Z,99937.66
2022-08-22T14:58:54.089Z,99927.91
2022-08-22T15:01:25.276Z,99917.41
2022-08-22T15:03:59.563Z,99925.53
2022-08-22T15:06:54.335Z,99922.72
2022-08-22T15:09:32.775Z,99923.69
2022-08-22T15:12:03.552Z,99917.31
2022-08-22T15:14:37.310Z,99918.22
2022-08-22T15:17:08.554Z,99916.19
2022-08-22T15:19:41.849Z,99916.34
2022-08-22T15:22:30.030Z,99903.41
2022-08-22T15:25:04.171Z,99915.72
2022-08-22T15:27:43.163Z,99912.28
2022-08-22T15:30:18.834Z,99904.22
2022-08-22T15:32:49.360Z,99908.09
2022-08-22T15:35:31.272Z,99903.53
2022-08-22T15:38:08.998Z,99904.09
2022-08-22T15:40:41.325Z,99907.88
2022-08-22T15:43:28.851Z,99903.88
2022-08-22T15:46:21.444Z,99903.44
2022-08-22T15:49:11.187Z,99897.81
2022-08-22T15:52:03.390Z,99899.06
2022-08-22T15:54:51.332Z,99906.84
2022-08-22T15:57:29.360Z,99903.00
2022-08-22T16:00:23.909Z,99899.75
2022-08-22T16:03:00.605Z,99902.97
2022-08-22T16:05:55.401Z,99899.03
2022-08-22T16:08:29.567Z,99903.63
2022-08-22T16:11:03.567Z,99899.91
2022-08-22T16:13:31.048Z,99890.00
2022-08-22T16:16:25.214Z,99897.09
2022-08-22T16:22:08.146Z,99899.25
2022-08-22T16:25:00.839Z,99895.84
2022-08-22T16:27:30.749Z,99893.78
2022-08-22T16:30:07.498Z,99895.31
2022-08-22T16:32:36.086Z,99899.31
2022-08-22T16:35:49.212Z,99904.75
2022-08-22T16:38:36.622Z,99916.41
2022-08-22T16:41:06.784Z,99912.03
2022-08-22T16:43:34.515Z,99909.34
2022-08-22T16:46:21.268Z,99912.16
2022-08-22T16:49:01.473Z,99923.25
2022-08-22T16:51:28.898Z,99916.19
2022-08-22T16:54:13.175Z,99919.06
2022-08-22T16:57:07.631Z,99918.47
2022-08-22T16:59:54.709Z,99912.53
2022-08-22T17:02:37.552Z,99921.59
2022-08-22T17:05:24.443Z,99921.69
2022-08-22T17:08:13.001Z,99920.44
2022-08-22T17:10:40.422Z,99914.38
2022-08-22T17:13:26.488Z,99922.25
2022-08-22T17:16:15.534Z,99914.31
2022-08-22T17:18:58.233Z,99921.44
2022-08-22T17:21:51.787Z,99923.47
2022-08-22T17:24:39.900Z,99920.22
2022-08-22T17:27:35.931Z,99909.53
2022-08-22T17:30:09.499Z,99922.16
2022-08-22T17:32:59.820Z,99915.66
2022-08-22T17:35:58.782Z,99919.69
2022-08-22T17:38:50.865Z,99921.19
2022-08-22T17:41:27.466Z,99925.91
2022-08-22T17:44:30.502Z,99918.50
2022-08-22T17:47:18.039Z,99926.75
2022-08-22T17:50:00.540Z,99930.00
2022-08-22T17:52:37.414Z,99934.13
2022-08-22T17:55:29.419Z,99943.00
2022-08-22T17:58:06.657Z,99934.56
2022-08-22T18:00:39.549Z,99938.28
2022-08-22T18:03:29.575Z,99943.63
2022-08-22T18:06:11.569Z,99949.38
2022-08-22T18:12:01.878Z,99956.78
2022-08-22T18:14:52.755Z,99967.81
2022-08-22T18:17:29.041Z,99969.97
2022-08-22T18:20:07.694Z,99968.75
2022-08-22T18:23:00.470Z,99980.44
2022-08-22T18:25:39.870Z,99978.88
2022-08-22T18:28:36.121Z,99978.94
2022-08-22T18:31:09.023Z,99980.59
2022-08-22T18:33:44.688Z,99991.69
2022-08-22T18:36:18.860Z,99986.63
2022-08-22T18:38:55.874Z,99994.91
2022-08-22T18:41:45.096Z,99996.47
2022-08-22T18:44:20.151Z,100005.09
2022-08-22T18:46:51.599Z,100018.44
2022-08-22T18:49:22.523Z,100014.19
2022-08-22T18:52:25.432Z,100011.59
2022-08-22T18:55:17.920Z,100024.16
2022-08-22T18:57:58.722Z,100022.75
2022-08-22T19:01:10.344Z,100023.47
2022-08-22T19:04:08.942Z,100034.09
2022-08-22T19:07:10.080Z,100037.53
2022-08-22T19:09:53.799Z,100035.75
2022-08-22T19:12:58.127Z,100045.34
2022-08-22T19:15:51.876Z,100045.72
2022-08-22T19:18:29.849Z,100061.19
2022-08-22T19:21:37.742Z,100050.22
2022-08-22T19:24:13.607Z,100054.72
2022-08-22T19:26:47.753Z,100061.22
2022-08-22T19:29:17.929Z,100055.50
2022-08-22T19:31:51.010Z,100067.91
2022-08-22T19:34:33.887Z,100064.03
2022-08-22T19:37:32.860Z,100074.59
2022-08-22T19:40:02.950Z,100074.00
2022-08-22T19:42:36.017Z,100071.16
2022-08-22T19:45:29.035Z,100073.09
2022-08-22T19:48:13.899Z,100073.03
2022-08-22T19:50:43.265Z,100076.59
2022-08-22T19:53:13.367Z,100085.13
2022-08-22T19:56:02.521Z,100085.47
2022-08-22T19:59:02.668Z,100089.13
2022-08-22T20:01:56.185Z,100097.22
2022-08-22T20:04:46.243Z,100104.56
2022-08-22T20:07:28.346Z,100100.94
2022-08-22T20:10:26.759Z,100110.22
2022-08-22T20:13:08.637Z,100111.59
2022-08-22T20:16:16.099Z,100110.28
2022-08-22T20:19:08.862Z,100121.41
2022-08-22T20:21:46.292Z,100126.41
2022-08-22T20:24:32.356Z,100116.06
2022-08-22T20:27:14.491Z,100121.03
2022-08-22T20:29:51.290Z,100120.34
2022-08-22T20:32:23.399Z,100121.31
2022-08-22T20:34:58.970Z,100118.22
2022-08-22T20:38:05.413Z,100125.38
2022-08-22T20:40:56.291Z,100126.19
2022-08-22T20:43:28.215Z,100135.16
2022-08-22T20:46:13.853Z,100137.97
2022-08-22T20:48:45.047Z,100136.66
2022-08-22T20:51:15.968Z,100141.47
2022-08-22T20:53:54.965Z,100135.50
2022-08-22T20:56:53.139Z,100142.16
2022-08-22T20:59:37.152Z,100145.16
2022-08-22T21:02:22.521Z,100140.81
2022-08-22T21:05:03.566Z,100142.88
2022-08-22T21:07:37.797Z,100140.56
2022-08-22T21:10:27.006Z,100151.19
2022-08-22T21:13:16.487Z,100151.72
2022-08-22T21:15:59.652Z,100157.88
2022-08-22T21:18:38.522Z,100159.53
2022-08-22T21:21:16.956Z,100158.38
2022-08-22T21:23:51.631Z,100155.53
2022-08-22T21:26:21.350Z,100157.88
2022-08-22T21:29:18.714Z,100159.84
2022-08-22T21:31:59.313Z,100150.56
2022-08-22T21:34:36.756Z,100161.84
2022-08-22T21:37:16.487Z,100159.84
2022-08-22T21:39:47.985Z,100159.19
2022-08-22T21:42:34.657Z,100157.53
2022-08-22T21:45:08.284Z,100171.47
2022-08-22T21:47:39.559Z,100164.63
2022-08-22T21:50:12.660Z,100165.78
2022-08-22T21:53:01.761Z,100169.09
2022-08-22T21:55:30.552Z,100166.13
2022-08-22T21:58:03.750Z,100165.78
2022-08-22T22:01:01.862Z,100169.06
2022-08-22T22:03:34.777Z,100176.38
2022-08-22T22:06:05.373Z,100184.00
2022-08-22T22:08:33.382Z,100171.38
2022-08-22T22:11:06.006Z,100185.81
2022-08-22T22:13:36.222Z,100190.59
2022-08-22T22:16:05.769Z,100183.47
2022-08-22T22:18:34.414Z,100187.28
2022-08-22T22:21:02.167Z,100185.25
2022-08-22T22:23:29.732Z,100190.50
2022-08-22T22:26:01.225Z,100192.13
2022-08-22T22:28:32.341Z,100191.13
2022-08-22T22:31:00.040Z,100191.97
2022-08-22T22:33:30.771Z,100197.44
2022-08-22T22:36:03.575Z,100197.91
2022-08-22T22:38:30.940Z,100201.88
2022-08-22T22:40:58.268Z,100210.25
2022-08-22T22:43:26.613Z,100203.97
2022-08-22T22:45:53.940Z,100202.06
2022-08-22T22:48:24.553Z,100205.53
2022-08-22T22:50:54.929Z,100214.16
2022-08-22T22:53:33.647Z,100213.63
2022-08-22T22:56:09.941Z,100209.28
2022-08-22T22:58:38.293Z,100211.16
2022-08-22T23:01:10.474Z,100205.41
2022-08-22T23:03:38.108Z,100216.34
2022-08-22T23:06:13.673Z,100214.88
2022-08-22T23:08:41.274Z,100209.47
2022-08-22T23:11:19.587Z,100215.72
2022-08-22T23:13:48.353Z,100210.72
2022-08-22T23:16:19.374Z,100213.75
2022-08-22T23:18:47.381Z,100220.03
2022-08-22T23:21:17.339Z,100219.69
2022-08-22T23:23:45.773Z,100219.38
2022-08-22T23:26:13.373Z,100216.34
2022-08-22T23:28:40.924Z,100214.00
2022-08-22T23:31:26.420Z,100211.97
2022-08-22T23:33:54.858Z,100217.34
2022-08-22T23:36:23.902Z,100219.09
2022-08-22T23:38:52.591Z,100224.69
2022-08-22T23:41:21.607Z,100216.06
2022-08-22T23:43:52.469Z,100207.66
2022-08-22T23:46:22.827Z,100212.66
2022-08-22T23:48:50.607Z,100219.69
2022-08-22T23:51:22.964Z,100223.78
2022-08-22T23:53:53.654Z,100219.31
2022-08-22T23:56:26.863Z,100217.00
2022-08-22T23:58:54.313Z,100222.56
